Time;durP1;ratioP1;P1;durP2;ratioP2;P2;SDS_P1;SDS_P2;PMS_P1;PMS_P2;Temp;Humidity;BMP_temperature;BMP_pressure;BME280_temperature;BME280_humidity;BME280_pressure;Samples;Min_cycle;Max_cycle;Signal;HPM_P1;HPM_P2
2022/05/31 00:00:25;;;;;;;2.22;1.70;;;;;;;15.49;45.65;99603.69;4998987;28;20049;-84
2022/05/31 00:02:54;;;;;;;1.95;1.63;;;;;;;15.50;45.49;99602.72;4997998;28;20058;-84
2022/05/31 00:05:21;;;;;;;2.88;1.63;;;;;;;15.57;45.36;99603.69;4976428;28;20041;-83
2022/05/31 00:07:48;;;;;;;4.72;1.98;;;;;;;15.64;45.63;99599.28;4998880;28;20038;-84
2022/05/31 00:10:15;;;;;;;4.78;1.83;;;;;;;15.66;45.91;99601.81;5012902;28;20051;-84
2022/05/31 00:12:43;;;;;;;4.00;1.85;;;;;;;15.64;45.81;99603.81;5002443;28;20498;-83
2022/05/31 00:15:12;;;;;;;2.42;1.70;;;;;;;15.61;45.95;99594.28;5004387;28;20054;-84
2022/05/31 00:17:40;;;;;;;2.80;2.00;;;;;;;15.59;46.26;99592.78;4982776;28;20111;-84
2022/05/31 00:20:08;;;;;;;2.15;1.55;;;;;;;15.57;46.43;99589.44;4992534;28;20038;-84
2022/05/31 00:22:36;;;;;;;4.15;1.83;;;;;;;15.55;46.68;99583.47;5013619;28;20113;-84
2022/05/31 00:25:03;;;;;;;2.28;1.90;;;;;;;15.49;46.71;99579.63;5007410;28;20045;-84
2022/05/31 00:27:30;;;;;;;1.70;1.60;;;;;;;15.49;46.46;99589.50;4987902;28;20058;-84
2022/05/31 00:29:57;;;;;;;1.95;1.58;;;;;;;15.47;46.66;99581.66;5011446;28;20040;-83
2022/05/31 00:32:44;;;;;;;1.65;1.55;;;;;;;15.40;47.52;99589.53;5010228;28;20049;-83
2022/05/31 00:35:25;;;;;;;2.17;1.73;;;;;;;15.37;47.16;99583.69;4963216;28;20053;-84
2022/05/31 00:37:54;;;;;;;1.88;1.42;;;;;;;15.39;46.97;99579.84;4981206;28;20049;-83
2022/05/31 00:40:24;;;;;;;3.03;1.60;;;;;;;15.36;47.22;99588.19;4993373;28;20681;-84
2022/05/31 00:42:58;;;;;;;3.67;1.52;;;;;;;15.35;47.32;99589.22;5010912;28;20054;-84
2022/05/31 00:45:29;;;;;;;3.22;1.50;;;;;;;15.34;47.03;99586.69;4970446;28;20045;-84
2022/05/31 00:47:56;;;;;;;2.50;1.60;;;;;;;15.34;46.99;99584.03;4980014;28;20417;-83
2022/05/31 00:50:33;;;;;;;2.45;1.33;;;;;;;15.28;47.52;99590.91;4987328;28;20044;-84
2022/05/31 00:53:04;;;;;;;3.25;1.70;;;;;;;15.24;46.98;99578.03;4989548;28;20405;-84
2022/05/31 00:55:36;;;;;;;2.25;1.70;;;;;;;15.26;47.12;99584.06;4999445;28;20099;-84
2022/05/31 00:58:29;;;;;;;2.67;1.85;;;;;;;15.19;48.04;99587.44;4981800;28;20124;-84
2022/05/31 01:00:57;;;;;;;2.10;1.70;;;;;;;15.18;47.26;99582.25;4932185;28;20054;-84
2022/05/31 01:03:25;;;;;;;4.07;1.67;;;;;;;15.14;47.44;99581.75;4928209;28;20050;-84
2022/05/31 01:05:51;;;;;;;2.60;1.58;;;;;;;15.11;47.55;99582.13;4936759;28;20074;-84
2022/05/31 01:08:18;;;;;;;4.03;2.13;;;;;;;15.09;47.48;99573.44;4945816;28;20081;-81
2022/05/31 01:11:05;;;;;;;1.77;1.67;;;;;;;15.07;47.74;99580.78;4945131;28;20050;-80
2022/05/31 01:13:50;;;;;;;4.25;1.70;;;;;;;15.05;47.98;99587.31;4920253;28;20804;-80
2022/05/31 01:17:06;;;;;;;2.03;1.75;;;;;;;15.02;48.50;99585.81;4916240;29;20444;-80
2022/05/31 01:19:56;;;;;;;2.13;1.52;;;;;;;15.07;47.81;99588.81;4947226;28;20050;-80
2022/05/31 01:22:52;;;;;;;2.00;1.80;;;;;;;15.03;48.19;99600.00;4942702;28;20503;-80
2022/05/31 01:25:22;;;;;;;2.30;1.73;;;;;;;15.04;47.93;99593.66;4893012;28;20692;-80
2022/05/31 01:28:21;;;;;;;2.95;1.83;;;;;;;15.00;48.20;99590.47;4994458;28;20423;-79
2022/05/31 01:30:55;;;;;;;2.30;1.90;;;;;;;14.98;48.10;99590.66;4913585;28;20457;-80
2022/05/31 01:33:24;;;;;;;2.35;1.90;;;;;;;14.98;48.07;99597.84;4946840;28;20646;-81
2022/05/31 01:35:51;;;;;;;2.03;1.70;;;;;;;14.94;47.90;99593.84;4995830;28;20046;-84
2022/05/31 01:38:25;;;;;;;4.97;2.22;;;;;;;14.90;49.06;99589.84;4997865;28;20129;-84
2022/05/31 01:41:00;;;;;;;1.92;1.48;;;;;;;14.89;48.36;99593.53;4966522;28;20053;-84
2022/05/31 01:43:29;;;;;;;3.85;1.80;;;;;;;14.93;48.31;99600.19;4962802;28;20658;-80
2022/05/31 01:45:59;;;;;;;5.97;1.90;;;;;;;14.88;48.77;99599.84;4974610;28;20603;-80
2022/05/31 01:48:28;;;;;;;3.70;1.83;;;;;;;14.86;48.37;99597.38;4944180;28;20158;-80
2022/05/31 01:50:56;;;;;;;3.40;1.98;;;;;;;14.87;48.41;99592.84;4974045;28;20085;-80
2022/05/31 01:53:24;;;;;;;2.53;2.00;;;;;;;14.85;48.27;99593.00;4963525;28;20042;-80
2022/05/31 01:55:51;;;;;;;1.60;1.50;;;;;;;14.80;48.46;99592.69;4959204;28;20045;-80
2022/05/31 01:58:20;;;;;;;3.50;1.73;;;;;;;14.75;48.76;99592.34;4978309;28;20057;-80
2022/05/31 02:00:49;;;;;;;3.28;1.65;;;;;;;14.73;48.87;99584.53;4978816;28;20049;-84
2022/05/31 02:03:18;;;;;;;3.10;1.52;;;;;;;14.75;48.67;99589.69;4959794;28;20050;-83
2022/05/31 02:05:46;;;;;;;1.85;1.63;;;;;;;14.76;48.54;99583.34;4959789;28;20105;-84
2022/05/31 02:08:14;;;;;;;2.70;1.33;;;;;;;14.76;49.03;99584.19;4975480;28;20045;-83
2022/05/31 02:10:41;;;;;;;6.18;1.67;;;;;;;14.83;48.48;99583.50;4977743;28;20413;-83
2022/05/31 02:13:09;;;;;;;2.05;1.60;;;;;;;14.84;48.38;99587.84;4997050;28;20385;-83
2022/05/31 02:15:53;;;;;;;1.70;1.60;;;;;;;14.79;48.58;99588.34;4950219;28;20057;-83
2022/05/31 02:21:35;;;;;;;3.65;1.77;;;;;;;14.72;49.19;99592.69;4944165;28;20120;-84
2022/05/31 02:24:08;;;;;;;5.80;1.95;;;;;;;14.67;49.50;99585.19;4983144;28;20041;-84
2022/05/31 02:26:35;;;;;;;2.60;1.70;;;;;;;14.69;49.36;99583.19;4991422;28;20449;-85
2022/05/31 02:29:03;;;;;;;2.15;1.42;;;;;;;14.65;49.10;99584.50;5006463;28;20531;-84
2022/05/31 02:31:30;;;;;;;2.42;1.60;;;;;;;14.63;49.34;99585.66;4977601;28;20049;-82
2022/05/31 02:33:57;;;;;;;3.30;1.70;;;;;;;14.64;49.20;99580.16;4986968;28;20195;-85
2022/05/31 02:36:23;;;;;;;2.83;1.50;;;;;;;14.60;48.85;99586.00;4977307;28;20046;-80
2022/05/31 02:38:51;;;;;;;2.67;1.60;;;;;;;14.58;49.23;99580.00;4973970;28;20064;-81
2022/05/31 02:41:20;;;;;;;2.88;2.03;;;;;;;14.57;49.23;99578.34;5001046;28;20128;-80
2022/05/31 02:43:47;;;;;;;2.30;1.80;;;;;;;14.56;49.49;99582.84;4983302;28;20124;-80
2022/05/31 02:46:14;;;;;;;1.85;1.75;;;;;;;14.55;49.29;99575.81;4983592;28;20409;-80
2022/05/31 02:48:41;;;;;;;1.98;1.67;;;;;;;14.54;49.28;99575.00;4986657;28;20095;-80
2022/05/31 02:51:08;;;;;;;1.63;1.50;;;;;;;14.58;49.33;99574.66;4974954;28;20041;-80
2022/05/31 02:53:35;;;;;;;3.30;1.92;;;;;;;14.59;49.06;99573.66;4994848;28;20099;-80
2022/05/31 02:56:03;;;;;;;2.10;1.90;;;;;;;14.58;49.33;99571.97;5015988;28;20053;-80
2022/05/31 02:58:48;;;;;;;2.17;1.80;;;;;;;14.53;49.58;99570.66;5007605;28;20068;-78
2022/05/31 03:01:39;;;;;;;2.65;1.90;;;;;;;14.54;49.70;99563.47;4933047;28;20050;-78
2022/05/31 03:04:25;;;;;;;2.85;1.85;;;;;;;14.52;49.43;99565.44;5008833;28;20509;-80
2022/05/31 03:07:03;;;;;;;3.08;1.83;;;;;;;14.51;49.20;99561.13;4997093;28;20134;-80
2022/05/31 03:09:40;;;;;;;1.70;1.60;;;;;;;14.49;49.61;99561.28;4970415;28;20049;-80
2022/05/31 03:12:09;;;;;;;4.65;1.67;;;;;;;14.46;49.31;99558.94;5003655;28;20103;-80
2022/05/31 03:14:45;;;;;;;3.78;1.60;;;;;;;14.43;50.05;99563.81;4986014;28;20057;-80
2022/05/31 03:17:19;;;;;;;2.03;1.83;;;;;;;14.38;50.23;99566.97;4992961;28;20050;-80
2022/05/31 03:19:53;;;;;;;3.70;1.77;;;;;;;14.38;50.06;99568.81;4992446;28;20057;-80
2022/05/31 03:22:26;;;;;;;2.22;1.65;;;;;;;14.41;49.58;99563.13;4984385;28;20068;-80
2022/05/31 03:25:06;;;;;;;2.88;1.90;;;;;;;14.35;50.12;99567.31;5005207;28;20496;-80
2022/05/31 03:27:33;;;;;;;3.25;1.85;;;;;;;14.36;49.48;99563.63;5002875;28;20053;-80
2022/05/31 03:30:02;;;;;;;2.97;1.50;;;;;;;14.36;49.44;99562.78;4991822;28;20045;-80
2022/05/31 03:32:30;;;;;;;2.15;1.58;;;;;;;14.31;49.30;99558.78;4963192;28;20045;-81
2022/05/31 03:34:57;;;;;;;2.63;1.45;;;;;;;14.35;49.59;99559.28;4988452;28;20068;-81
2022/05/31 03:37:24;;;;;;;2.40;1.75;;;;;;;14.38;49.50;99564.28;4995457;28;20054;-81
2022/05/31 03:39:51;;;;;;;1.92;1.50;;;;;;;14.39;49.47;99555.25;4981784;28;20489;-81
2022/05/31 03:42:18;;;;;;;2.33;1.60;;;;;;;14.38;49.55;99558.13;4992923;28;20101;-81
2022/05/31 03:44:46;;;;;;;4.20;1.83;;;;;;;14.37;49.58;99557.25;4981818;28;20121;-81
2022/05/31 03:47:39;;;;;;;2.92;2.03;;;;;;;14.36;49.81;99558.28;4971261;28;20045;-81
2022/05/31 03:50:28;;;;;;;1.70;1.60;;;;;;;14.56;50.77;99553.47;4958545;28;20147;-81
2022/05/31 03:52:56;;;;;;;2.13;1.90;;;;;;;14.85;51.40;99562.78;4984101;28;20045;-81
2022/05/31 03:55:23;;;;;;;2.05;1.75;;;;;;;15.10;50.47;99558.19;4998394;28;20563;-81
2022/05/31 03:57:51;;;;;;;4.03;1.95;;;;;;;15.11;49.10;99555.38;5005101;28;20058;-81
2022/05/31 04:00:50;;;;;;;3.22;1.95;;;;;;;15.39;48.70;99549.56;4943394;28;20528;-81
2022/05/31 04:03:21;;;;;;;2.05;1.73;;;;;;;15.49;48.08;99546.69;5008456;28;20057;-81
2022/05/31 04:05:51;;;;;;;2.22;1.88;;;;;;;15.37;47.79;99552.44;4970682;28;20049;-81
2022/05/31 04:08:20;;;;;;;3.05;1.80;;;;;;;15.55;47.31;99551.34;5001462;28;20096;-81
2022/05/31 04:10:48;;;;;;;2.50;2.30;;;;;;;15.47;47.25;99560.25;5003678;28;20125;-81
2022/05/31 04:13:16;;;;;;;2.97;1.90;;;;;;;15.53;47.29;99548.84;4997042;28;20050;-81
2022/05/31 04:16:08;;;;;;;4.93;1.98;;;;;;;15.45;46.45;99559.59;4945275;28;20129;-81
2022/05/31 04:18:39;;;;;;;3.22;2.00;;;;;;;15.54;46.70;99560.38;4940845;28;20046;-81
2022/05/31 04:21:35;;;;;;;2.85;1.98;;;;;;;15.50;46.24;99554.53;4966430;28;20470;-81
2022/05/31 04:24:29;;;;;;;4.18;1.98;;;;;;;15.24;45.90;99557.50;4897206;28;20051;-81
2022/05/31 04:27:21;;;;;;;2.28;1.80;;;;;;;15.15;46.89;99545.97;4872887;28;20137;-81
2022/05/31 04:30:09;;;;;;;3.58;2.17;;;;;;;15.03;47.63;99551.88;4939885;28;20117;-79
2022/05/31 04:32:59;;;;;;;2.45;2.25;;;;;;;15.14;47.77;99554.19;4911265;28;20469;-81
2022/05/31 04:35:33;;;;;;;3.30;2.05;;;;;;;15.25;47.65;99561.84;4970016;28;20409;-81
2022/05/31 04:38:00;;;;;;;3.03;1.83;;;;;;;15.44;47.50;99559.75;4970702;28;20136;-82
2022/05/31 04:40:49;;;;;;;3.85;2.05;;;;;;;15.41;46.98;99560.94;4935761;28;20061;-80
2022/05/31 04:43:35;;;;;;;2.92;2.10;;;;;;;15.12;47.04;99554.34;4970378;28;20046;-80
2022/05/31 04:46:19;;;;;;;3.47;2.20;;;;;;;14.87;47.39;99555.41;4950819;28;20052;-80
2022/05/31 04:49:18;;;;;;;3.05;2.20;;;;;;;14.74;48.01;99558.63;4912577;28;20057;-82
2022/05/31 04:51:46;;;;;;;3.33;2.13;;;;;;;14.71;47.86;99558.97;4977620;28;20045;-80
2022/05/31 04:54:20;;;;;;;2.67;2.17;;;;;;;14.49;48.41;99552.44;4966302;28;20065;-79
2022/05/31 04:57:05;;;;;;;3.97;2.35;;;;;;;14.27;49.03;99536.09;5007722;28;20064;-82
2022/05/31 04:59:33;;;;;;;3.97;2.30;;;;;;;14.15;49.51;99545.44;5009531;28;20132;-81
2022/05/31 05:02:01;;;;;;;6.68;2.13;;;;;;;14.00;49.20;99542.56;4992247;28;20049;-80
2022/05/31 05:04:42;;;;;;;4.97;2.50;;;;;;;14.11;48.99;99541.41;4970667;28;20042;-81
2022/05/31 05:07:18;;;;;;;3.47;2.20;;;;;;;13.99;49.97;99537.38;4999390;28;20045;-81
2022/05/31 05:09:45;;;;;;;6.75;2.47;;;;;;;14.02;49.72;99537.91;4991653;28;20044;-81
2022/05/31 05:12:24;;;;;;;2.35;2.15;;;;;;;14.22;49.60;99533.09;5003417;28;20052;-80
2022/05/31 05:14:59;;;;;;;2.88;2.10;;;;;;;14.25;49.42;99540.75;4970614;28;20041;-77
2022/05/31 05:17:30;;;;;;;4.70;2.00;;;;;;;14.18;49.53;99537.06;5018041;28;20045;-82
2022/05/31 05:19:57;;;;;;;3.13;2.25;;;;;;;14.10;49.56;99537.06;4989815;28;20045;-84
2022/05/31 05:22:23;;;;;;;2.15;1.95;;;;;;;14.19;49.62;99535.22;5011566;28;20041;-82
2022/05/31 05:24:51;;;;;;;6.47;2.53;;;;;;;14.00;49.85;99537.22;4990646;28;20046;-80
2022/05/31 05:27:37;;;;;;;4.28;2.72;;;;;;;14.19;50.17;99541.41;4999010;28;20537;-80
2022/05/31 05:33:00;;;;;;;4.85;2.33;;;;;;;14.18;50.48;99534.41;4978772;28;20049;-83
2022/05/31 05:35:29;;;;;;;3.78;2.50;;;;;;;14.19;50.45;99525.38;4999318;28;20557;-82
2022/05/31 05:38:08;;;;;;;4.50;2.30;;;;;;;14.23;50.26;99532.06;4990424;28;20142;-81
2022/05/31 05:41:00;;;;;;;4.03;2.28;;;;;;;14.25;50.88;99527.41;4960442;28;20056;-80
2022/05/31 05:43:47;;;;;;;5.80;2.20;;;;;;;14.33;50.58;99532.72;4979488;28;20046;-80
2022/05/31 05:46:20;;;;;;;3.90;2.47;;;;;;;14.31;50.54;99531.22;4999341;28;20046;-80
2022/05/31 05:48:48;;;;;;;7.25;2.67;;;;;;;14.29;50.73;99535.91;5020604;28;20511;-80
2022/05/31 05:51:17;;;;;;;3.92;2.55;;;;;;;14.28;50.69;99526.22;4996968;28;20125;-80
2022/05/31 05:54:02;;;;;;;3.40;2.30;;;;;;;14.44;50.50;99526.22;4979920;28;20046;-80
2022/05/31 05:56:47;;;;;;;3.00;1.95;;;;;;;14.56;50.23;99533.94;4969091;28;20069;-79
2022/05/31 05:59:33;;;;;;;4.88;2.28;;;;;;;14.58;50.38;99531.91;4997437;28;20605;-80
2022/05/31 06:02:30;;;;;;;5.63;2.50;;;;;;;14.70;50.23;99530.56;4998490;28;20046;-81
2022/05/31 06:05:40;;;;;;;3.85;2.28;;;;;;;14.70;50.29;99525.22;4926034;28;20530;-81
2022/05/31 06:08:14;;;;;;;3.92;2.20;;;;;;;14.67;50.47;99526.38;5002141;28;20052;-81
2022/05/31 06:10:45;;;;;;;3.67;2.10;;;;;;;14.63;50.67;99526.88;5004866;28;20456;-79
2022/05/31 06:13:26;;;;;;;3.63;2.40;;;;;;;14.65;50.99;99519.53;5011109;28;20049;-79
2022/05/31 06:15:55;;;;;;;2.60;2.22;;;;;;;14.85;50.51;99523.50;4991771;28;20045;-80
2022/05/31 06:18:30;;;;;;;4.15;2.35;;;;;;;14.86;50.77;99529.72;5007331;28;20049;-79
2022/05/31 06:21:05;;;;;;;3.92;2.58;;;;;;;14.88;50.36;99525.00;4994931;28;20057;-79
2022/05/31 06:23:37;;;;;;;6.45;2.10;;;;;;;15.02;50.73;99531.50;4959245;28;20056;-80
2022/05/31 06:26:06;;;;;;;3.65;2.20;;;;;;;15.06;50.34;99531.00;4984086;28;20372;-79
2022/05/31 06:28:39;;;;;;;4.03;2.80;;;;;;;15.15;50.89;99537.13;5001511;28;20115;-79
2022/05/31 06:31:05;;;;;;;3.10;2.47;;;;;;;15.24;50.35;99538.78;5014831;28;20128;-80
2022/05/31 06:33:32;;;;;;;6.25;2.40;;;;;;;15.15;50.62;99535.28;5002622;28;20502;-80
2022/05/31 06:36:01;;;;;;;5.45;2.65;;;;;;;15.29;50.02;99535.56;5004473;28;20128;-78
2022/05/31 06:38:29;;;;;;;5.57;2.75;;;;;;;15.34;50.14;99536.72;5018584;28;20064;-79
2022/05/31 06:40:57;;;;;;;4.05;2.40;;;;;;;15.32;50.05;99540.59;5010407;28;20044;-79
2022/05/31 06:43:34;;;;;;;7.57;2.30;;;;;;;15.34;50.53;99527.84;4999067;28;20132;-80
2022/05/31 06:46:20;;;;;;;4.07;2.83;;;;;;;15.41;50.53;99529.66;4958484;28;20049;-75
2022/05/31 06:49:16;;;;;;;4.47;2.28;;;;;;;15.34;50.28;99527.84;4923711;28;20531;-75
2022/05/31 06:57:48;;;;;;;2.50;2.08;;;;;;;15.59;50.28;99517.84;4964324;28;20122;-77
2022/05/31 07:00:31;;;;;;;3.22;2.70;;;;;;;15.67;50.10;99511.63;4988756;28;20046;-76
2022/05/31 07:02:59;;;;;;;3.92;2.58;;;;;;;15.74;50.04;99512.63;5017102;28;20037;-78
2022/05/31 07:05:38;;;;;;;5.22;2.08;;;;;;;15.73;50.25;99511.78;5004077;28;20115;-78
2022/05/31 07:08:12;;;;;;;3.40;2.60;;;;;;;15.87;50.31;99509.34;5003998;28;20132;-77
2022/05/31 07:11:14;;;;;;;5.00;2.60;;;;;;;15.77;50.42;99518.47;4968529;28;20066;-77
2022/05/31 07:14:03;;;;;;;4.60;2.70;;;;;;;15.77;50.28;99512.25;4987519;28;20050;-76
2022/05/31 07:16:48;;;;;;;4.00;2.55;;;;;;;15.88;50.09;99505.69;4985914;28;20077;-77
2022/05/31 07:19:18;;;;;;;5.55;2.30;;;;;;;15.84;50.15;99507.88;5015762;28;20054;-76
2022/05/31 07:21:47;;;;;;;5.22;2.35;;;;;;;15.93;50.20;99498.78;5009050;28;20054;-76
2022/05/31 07:24:13;;;;;;;3.00;2.47;;;;;;;15.99;50.85;99489.19;5005436;28;20103;-76
2022/05/31 07:27:06;;;;;;;3.60;2.07;;;;;;;16.05;50.67;99486.63;4966390;28;20119;-77
2022/05/31 07:29:34;;;;;;;4.97;2.17;;;;;;;16.15;49.99;99486.38;4969411;28;20061;-77
2022/05/31 07:32:02;;;;;;;4.32;2.10;;;;;;;16.13;50.94;99485.75;4999132;28;20056;-77
2022/05/31 07:34:50;;;;;;;3.63;2.60;;;;;;;16.21;50.76;99479.47;4939726;28;20054;-77
2022/05/31 07:37:18;;;;;;;2.85;2.47;;;;;;;16.21;50.58;99485.66;4996139;28;20562;-75
2022/05/31 07:39:48;;;;;;;3.35;2.42;;;;;;;16.23;51.16;99485.47;4995858;28;20052;-76
2022/05/31 07:42:16;;;;;;;4.22;2.20;;;;;;;16.33;51.12;99490.56;4984897;28;20099;-77
2022/05/31 07:44:47;;;;;;;3.65;2.80;;;;;;;16.40;50.97;99484.31;4982868;28;20042;-76
2022/05/31 07:47:14;;;;;;;4.00;2.65;;;;;;;16.43;50.81;99488.47;5016679;28;20049;-77
2022/05/31 07:49:42;;;;;;;4.85;2.47;;;;;;;16.45;50.27;99478.41;5007995;28;20059;-77
2022/05/31 07:52:29;;;;;;;5.22;2.80;;;;;;;16.56;50.33;99475.28;4981924;28;20570;-77
2022/05/31 07:55:14;;;;;;;3.22;2.08;;;;;;;16.61;50.70;99475.59;4964898;28;20538;-77
2022/05/31 08:01:04;;;;;;;3.55;2.20;;;;;;;16.74;49.67;99472.25;4943963;28;20099;-78
2022/05/31 08:03:33;;;;;;;3.72;2.20;;;;;;;16.74;49.45;99466.91;4986025;28;20054;-79
2022/05/31 08:06:24;;;;;;;3.30;2.20;;;;;;;16.74;49.16;99472.25;4984264;28;20068;-78
2022/05/31 08:08:51;;;;;;;4.05;2.60;;;;;;;16.83;49.76;99468.47;4946317;28;20076;-78
2022/05/31 08:11:23;;;;;;;4.85;2.55;;;;;;;16.92;49.29;99470.06;5010894;28;20046;-78
2022/05/31 08:13:50;;;;;;;2.63;2.10;;;;;;;16.96;49.59;99470.50;4997807;28;20045;-78
2022/05/31 08:16:18;;;;;;;3.60;2.47;;;;;;;16.96;50.05;99467.00;4988960;28;20113;-78
2022/05/31 08:18:45;;;;;;;3.95;2.05;;;;;;;16.99;49.96;99459.41;5032504;28;20048;-77
2022/05/31 08:21:16;;;;;;;3.75;2.20;;;;;;;17.07;49.06;99462.00;4968259;28;20097;-78
2022/05/31 08:23:43;;;;;;;2.97;2.15;;;;;;;17.08;49.33;99463.66;5004833;28;20056;-77
2022/05/31 08:26:10;;;;;;;5.22;2.20;;;;;;;17.25;49.27;99469.66;5012904;28;20038;-79
2022/05/31 08:28:38;;;;;;;2.90;2.60;;;;;;;17.25;49.71;99471.50;4998646;28;20046;-78
2022/05/31 08:31:07;;;;;;;4.55;2.28;;;;;;;17.28;50.14;99471.13;4997419;28;20490;-78
2022/05/31 08:33:34;;;;;;;3.67;1.80;;;;;;;17.30;49.38;99458.34;4990961;28;20513;-77
2022/05/31 08:36:00;;;;;;;3.83;1.90;;;;;;;17.34;49.63;99459.63;4996095;28;20092;-81
2022/05/31 08:38:30;;;;;;;4.25;2.20;;;;;;;17.43;48.92;99452.28;4994902;28;20046;-83
2022/05/31 08:41:05;;;;;;;8.85;2.30;;;;;;;17.46;48.45;99449.25;5005164;28;20049;-77
2022/05/31 08:43:55;;;;;;;3.75;2.10;;;;;;;17.56;49.09;99450.59;4948003;28;20046;-78
2022/05/31 08:46:31;;;;;;;3.55;2.10;;;;;;;17.43;49.33;99447.78;4995813;28;20736;-77
2022/05/31 08:49:07;;;;;;;5.72;2.45;;;;;;;17.45;48.92;99443.03;4984020;28;20157;-82
2022/05/31 08:51:55;;;;;;;4.20;2.35;;;;;;;17.57;48.98;99446.88;4994577;28;20740;-81
2022/05/31 08:57:46;;;;;;;5.13;2.10;;;;;;;17.55;48.97;99443.56;4915576;28;20046;-80
2022/05/31 09:00:23;;;;;;;4.80;2.45;;;;;;;17.57;48.46;99444.19;4991127;28;20049;-81
2022/05/31 09:03:13;;;;;;;2.67;2.20;;;;;;;17.58;48.57;99440.50;4982116;28;20054;-82
2022/05/31 09:05:45;;;;;;;6.70;2.45;;;;;;;17.63;48.14;99442.63;4980405;28;20049;-81
2022/05/31 09:08:18;;;;;;;2.33;2.13;;;;;;;17.70;48.43;99448.88;5009103;28;20042;-82
2022/05/31 09:11:09;;;;;;;4.43;2.17;;;;;;;17.67;47.89;99440.38;5004661;28;20073;-79
2022/05/31 09:13:43;;;;;;;3.22;1.90;;;;;;;17.79;49.02;99439.72;4931531;28;20042;-78
2022/05/31 09:16:18;;;;;;;3.65;1.67;;;;;;;17.90;49.36;99438.34;4987276;28;20047;-78
2022/05/31 09:18:50;;;;;;;5.80;2.30;;;;;;;17.95;48.43;99445.84;4965736;28;20497;-76
2022/05/31 09:21:38;;;;;;;4.18;1.77;;;;;;;17.95;48.68;99445.84;4996038;28;20408;-82
2022/05/31 09:24:08;;;;;;;4.53;2.00;;;;;;;18.11;49.17;99448.25;4955202;28;20042;-78
2022/05/31 09:26:54;;;;;;;4.47;2.40;;;;;;;18.09;49.12;99450.31;4975849;28;20057;-77
2022/05/31 09:29:45;;;;;;;1.70;1.60;;;;;;;18.13;49.16;99448.88;4983656;28;20496;-77
2022/05/31 09:32:25;;;;;;;4.60;2.15;;;;;;;18.21;47.65;99448.72;4988109;28;20080;-77
2022/05/31 09:35:16;;;;;;;3.47;2.08;;;;;;;18.15;47.04;99446.84;5005073;28;20138;-77
2022/05/31 09:38:00;;;;;;;3.78;2.45;;;;;;;18.37;47.85;99442.25;4973142;28;20042;-78
2022/05/31 09:40:42;;;;;;;2.50;1.90;;;;;;;18.22;47.93;99444.22;4984052;28;20148;-77
2022/05/31 09:43:30;;;;;;;3.38;2.00;;;;;;;18.32;48.57;99442.03;4970697;28;20061;-78
2022/05/31 09:46:06;;;;;;;3.75;2.13;;;;;;;18.41;47.62;99445.38;4979255;28;20038;-77
2022/05/31 09:48:33;;;;;;;3.03;2.05;;;;;;;18.44;48.25;99453.03;5002649;28;20037;-77
2022/05/31 09:51:21;;;;;;;5.50;1.92;;;;;;;18.36;46.68;99447.81;5004124;28;20054;-79
2022/05/31 09:57:07;;;;;;;3.83;2.25;;;;;;;18.51;46.46;99443.16;4937293;28;20054;-77
2022/05/31 09:59:59;;;;;;;3.95;2.00;;;;;;;18.44;46.13;99445.84;4941318;28;20041;-79
2022/05/31 10:03:16;;;;;;;3.42;1.95;;;;;;;18.37;46.88;99450.31;4980562;28;20045;-81
2022/05/31 10:05:45;;;;;;;3.88;1.95;;;;;;;18.53;46.88;99441.13;4985660;28;20109;-79
2022/05/31 10:08:17;;;;;;;2.20;2.00;;;;;;;18.49;47.23;99434.47;4979011;28;20064;-80
2022/05/31 10:10:48;;;;;;;4.00;2.15;;;;;;;18.50;47.26;99433.47;4980556;28;20045;-79
2022/05/31 10:13:34;;;;;;;2.10;1.80;;;;;;;18.41;47.11;99437.31;4982019;28;20116;-79
2022/05/31 10:16:18;;;;;;;4.75;2.08;;;;;;;18.56;47.57;99440.72;4990111;28;20056;-80
2022/05/31 10:19:24;;;;;;;2.10;1.90;;;;;;;18.44;47.62;99428.84;4960280;28;20048;-80
2022/05/31 10:21:51;;;;;;;4.13;2.22;;;;;;;18.65;47.41;99428.78;4952233;28;20041;-80
2022/05/31 10:24:50;;;;;;;5.70;1.95;;;;;;;18.63;47.54;99428.16;4948427;28;20405;-81
2022/05/31 10:27:46;;;;;;;2.80;2.05;;;;;;;18.64;46.96;99426.28;4968957;28;20380;-79
2022/05/31 10:30:33;;;;;;;3.20;2.10;;;;;;;18.78;46.78;99427.25;4996303;28;20070;-76
2022/05/31 10:33:08;;;;;;;4.25;2.13;;;;;;;18.75;46.30;99428.47;4987208;28;20069;-77
2022/05/31 10:35:41;;;;;;;2.92;1.88;;;;;;;18.67;47.42;99415.13;5016188;28;20405;-76
2022/05/31 10:38:24;;;;;;;5.15;1.75;;;;;;;18.62;46.47;99417.56;4981898;28;20056;-77
2022/05/31 10:40:55;;;;;;;;;;;;;;;18.54;47.58;99417.75;4988031;28;20041;-77
2022/05/31 10:43:37;;;;;;;6.00;2.25;;;;;;;18.74;47.25;99412.47;4997762;28;19921;-78
2022/05/31 10:46:27;;;;;;;3.28;2.00;;;;;;;18.86;45.96;99419.81;4972091;28;20042;-77
2022/05/31 10:48:56;;;;;;;6.75;2.22;;;;;;;18.86;43.37;99422.50;4972286;28;20090;-77
2022/05/31 10:51:35;;;;;;;5.13;1.92;;;;;;;18.80;42.87;99414.41;4975549;28;20042;-77
2022/05/31 10:54:41;;;;;;;2.10;1.83;;;;;;;18.68;42.01;99407.91;4988419;28;20077;-78
2022/05/31 10:57:27;;;;;;;7.50;1.90;;;;;;;18.69;44.15;99406.88;4928084;28;20092;-77
2022/05/31 11:00:16;;;;;;;4.43;1.80;;;;;;;18.81;42.75;99408.00;4970200;28;20045;-77
2022/05/31 11:03:01;;;;;;;3.65;2.15;;;;;;;18.76;42.58;99400.53;4991226;28;20042;-77
2022/05/31 11:05:56;;;;;;;1.98;1.77;;;;;;;18.94;42.01;99401.84;4990265;28;20464;-77
2022/05/31 11:12:04;;;;;;;3.50;1.67;;;;;;;18.96;42.58;99403.31;4918217;28;20447;-77
2022/05/31 11:15:11;;;;;;;3.75;1.80;;;;;;;18.95;43.54;99411.56;5000365;28;20050;-80
2022/05/31 11:18:06;;;;;;;2.35;1.70;;;;;;;18.98;41.93;99417.41;4957865;28;20046;-79
2022/05/31 11:20:41;;;;;;;2.45;1.73;;;;;;;19.04;43.13;99408.50;4949744;28;20049;-79
2022/05/31 11:23:29;;;;;;;4.20;1.70;;;;;;;19.11;42.72;99408.56;5029989;28;20046;-80
2022/05/31 11:26:05;;;;;;;3.15;1.70;;;;;;;19.26;41.67;99411.91;4981874;28;20073;-80
2022/05/31 11:29:26;;;;;;;3.00;1.63;;;;;;;19.16;42.42;99408.78;4909596;28;20054;-79
2022/05/31 11:32:21;;;;;;;3.85;1.73;;;;;;;19.17;41.86;99413.13;4881711;28;20050;-78
2022/05/31 11:35:06;;;;;;;2.78;1.60;;;;;;;19.21;42.28;99402.75;4895368;28;20108;-80
2022/05/31 11:37:56;;;;;;;3.85;1.98;;;;;;;19.26;42.46;99408.41;4953192;28;20067;-80
2022/05/31 11:48:45;;;;;;;4.00;1.80;;;;;;;19.44;42.90;99400.56;4921990;28;20047;-79
2022/05/31 11:56:08;;;;;;;2.47;1.83;;;;;;;19.58;41.93;99395.19;4950455;28;20030;-79
2022/05/31 11:58:52;;;;;;;3.08;1.70;;;;;;;19.66;41.97;99389.59;4938602;28;20046;-79
2022/05/31 12:02:03;;;;;;;3.90;1.80;;;;;;;19.58;39.19;99382.56;4960425;28;20055;-79
2022/05/31 12:04:39;;;;;;;3.88;1.65;;;;;;;19.73;38.37;99383.22;4932871;28;20064;-78
2022/05/31 12:07:10;;;;;;;2.05;1.85;;;;;;;19.89;39.36;99400.03;5012966;28;20118;-78
2022/05/31 12:09:44;;;;;;;1.60;1.23;;;;;;;19.84;39.00;99389.84;5012879;28;20054;-78
2022/05/31 12:12:15;;;;;;;2.60;1.83;;;;;;;19.95;39.13;99391.94;5005443;28;20464;-82
2022/05/31 12:18:47;;;;;;;1.70;1.50;;;;;;;20.08;37.89;99380.34;4956164;28;20088;-82
2022/05/31 12:21:27;;;;;;;2.33;1.80;;;;;;;20.16;36.45;99388.19;5017089;28;20052;-82
2022/05/31 12:24:14;;;;;;;4.47;1.60;;;;;;;20.27;36.34;99385.91;5013071;28;20044;-82
2022/05/31 12:26:52;;;;;;;4.03;1.75;;;;;;;20.29;37.71;99383.84;4965441;28;20054;-82
2022/05/31 12:29:51;;;;;;;3.38;1.45;;;;;;;20.12;35.65;99381.59;5002309;28;20489;-78
2022/05/31 12:32:26;;;;;;;2.35;1.50;;;;;;;20.25;34.91;99383.44;4992455;28;20058;-77
2022/05/31 12:34:56;;;;;;;1.77;1.50;;;;;;;20.29;36.58;99384.66;5001558;28;20400;-78
2022/05/31 12:41:55;;;;;;;3.95;1.95;;;;;;;20.35;36.57;99385.69;4977187;28;20048;-81
2022/05/31 12:44:28;;;;;;;2.08;1.48;;;;;;;20.23;36.94;99376.59;4969696;28;20084;-78
2022/05/31 12:47:22;;;;;;;1.90;1.60;;;;;;;20.20;34.75;99371.59;4973830;28;20069;-78
2022/05/31 12:49:55;;;;;;;3.50;1.25;;;;;;;20.36;35.51;99384.66;4946125;28;20508;-79
2022/05/31 12:55:21;;;;;;;5.95;1.80;;;;;;;20.42;35.49;99385.69;4985614;28;21011;-78
2022/05/31 13:00:49;;;;;;;2.92;1.50;;;;;;;20.59;35.27;99385.03;4976165;28;20522;-78
2022/05/31 13:03:33;;;;;;;3.10;1.77;;;;;;;20.46;35.36;99382.34;4995111;28;20048;-79
2022/05/31 13:06:20;;;;;;;3.38;1.85;;;;;;;20.41;36.00;99382.16;4969442;28;20092;-78
2022/05/31 13:08:59;;;;;;;2.58;1.50;;;;;;;20.56;34.97;99379.25;5003399;28;20182;-80
2022/05/31 13:20:25;;;;;;;3.55;1.40;;;;;;;20.65;35.06;99372.56;4977332;28;20046;-82